South Royalton, Vermont
Current Conditions -  °F | °C
As of 6:53 PM on Tuesday 25 Nov 2014 (Local Time) from KLEB Reporting Station
Clear Clear  
Wind Chill: 35°   Ceiling: Unl
Heat Index: 35°   Visibility: 10mi
Dew Point: 27°   Wind: 0mph
Humidity: 72%   Direction: NA
Pressure: 29.97"   Gusts: NA
Location:  43.82°N, 72.52°W
Report Text: KLEB 252353Z 00000KT 10SM CLR 02/M03 A2997 RMK AO2 SLP151 T00171028 10117 20011 51021
Loading
Personal Weather Stations






























Interactive Weather Map New forecast layout! Learn more

10-Day Weather Forecast

Advertisements
Track Severe Weather on mobile